Thunder radar more information blitzortung!


Radar de pluja more information rain snow radar


Visita la nostra xarxa de llocs de meteo:

Template documentation
and downloads

And another site



No particular awareness of the weather is required.    There are no Weather-warnings

Pagina Historial Weather Underground text

Diari Resum Juny 11, 2017 Unitats:  Mètric    Imperial   Tant
« Previous Dia
SegĂźent Dia »
Diari Setmana Mensual Anual Personalitzada
  Maxima: Minima: Media:
Temperatura: 35.1 °C 16.9 °C 26.7 °C
Punt de rosada: 13.2 °C 2.9 °C 7 °C
Humitat: 61 % 16 % 31 %
Wind Speed: 13.0 km/h 0.0 km/h 4 km/h
RĂ fegues de vent: 20.9 km/h - -
Vent:- - SSW
Pression baro: 1017.8 hPa 1013.8 hPa -
Precipitacions: 0.0 mm    
Historical Graphs
 
 
Dades de taula per Juny 11, 2017
Temps Temperatura Punt de rosada Pression baro Vent Wind Speed RĂ fegues de vent Humitat Rainfall Rate (Hourly)
00:00 17.4 °C 9.6 °C 1014.8 hPa Calm   3.2 km/h 60 % 0.0 mm
00:04 21.8 °C 10.3 °C 1017.8 hPa WSW 3.7 km/h 3.7 km/h 48 % 0.0 mm
00:10 17.3 °C 9.4 °C 1015.8 hPa WSW 3.2 km/h 3.2 km/h 60 % 0.0 mm
00:20 17.2 °C 9.6 °C 1015.8 hPa Calm   3.2 km/h 61 % 0.0 mm
00:30 17.0 °C 8.9 °C 1015.8 hPa Calm   1.6 km/h 59 % 0.0 mm
00:40 16.9 °C 9.1 °C 1015.8 hPa SW 3.2 km/h 3.2 km/h 60 % 0.0 mm
00:50 17.1 °C 9.0 °C 1015.8 hPa WSW 3.2 km/h 4.8 km/h 59 % 0.0 mm
01:00 16.9 °C 8.8 °C 1015.8 hPa Calm   3.2 km/h 59 % 0.0 mm
01:10 17.0 °C 8.7 °C 1015.8 hPa Calm   1.6 km/h 58 % 0.0 mm
01:20 17.0 °C 8.4 °C 1015.8 hPa Calm   1.6 km/h 57 % 0.0 mm
01:30 16.9 °C 8.8 °C 1015.8 hPa Calm     59 % 0.0 mm
01:40 17.0 °C 8.9 °C 1015.8 hPa SSW 1.6 km/h 3.2 km/h 59 % 0.0 mm
01:50 17.3 °C 9.4 °C 1015.8 hPa Calm   1.6 km/h 60 % 0.0 mm
02:00 17.3 °C 9.2 °C 1015.8 hPa Calm     59 % 0.0 mm
02:10 17.4 °C 9.3 °C 1015.8 hPa Calm   1.6 km/h 59 % 0.0 mm
02:20 18.2 °C 10.1 °C 1015.8 hPa Calm     59 % 0.0 mm
02:30 18.1 °C 9.7 °C 1014.8 hPa SSE 1.6 km/h 3.2 km/h 58 % 0.0 mm
02:40 18.7 °C 10.3 °C 1015.8 hPa Calm   3.2 km/h 58 % 0.0 mm
02:50 20.0 °C 10.7 °C 1015.8 hPa NNW 3.2 km/h 3.2 km/h 55 % 0.0 mm
03:00 20.7 °C 11.3 °C 1015.8 hPa Calm   3.2 km/h 55 % 0.0 mm
03:10 21.6 °C 11.3 °C 1015.8 hPa Calm   1.6 km/h 52 % 0.0 mm
03:20 21.5 °C 11.2 °C 1015.8 hPa Calm   1.6 km/h 52 % 0.0 mm
03:30 22.1 °C 11.5 °C 1016.8 hPa NW 1.6 km/h 1.6 km/h 51 % 0.0 mm
03:40 21.8 °C 11.5 °C 1015.8 hPa Calm   3.2 km/h 52 % 0.0 mm
03:50 22.2 °C 11.6 °C 1015.8 hPa SW 1.6 km/h 3.2 km/h 51 % 0.0 mm
04:00 22.1 °C 11.2 °C 1015.8 hPa SW 1.6 km/h 3.2 km/h 50 % 0.0 mm
04:10 22.7 °C 11.4 °C 1016.8 hPa SW 3.2 km/h 3.2 km/h 49 % 0.0 mm
04:20 23.5 °C 11.8 °C 1016.8 hPa Calm   4.8 km/h 48 % 0.0 mm
04:30 24.1 °C 12.4 °C 1015.8 hPa SW 1.6 km/h 3.2 km/h 48 % 0.0 mm
04:40 24.6 °C 12.6 °C 1015.8 hPa SSW 1.6 km/h 3.2 km/h 47 % 0.0 mm
04:50 25.8 °C 12.9 °C 1015.8 hPa SSE 1.6 km/h 3.2 km/h 45 % 0.0 mm
05:00 26.4 °C 13.2 °C 1016.8 hPa SSE 1.6 km/h 4.8 km/h 44 % 0.0 mm
05:10 26.5 °C 12.9 °C 1015.8 hPa SW 1.6 km/h 4.8 km/h 43 % 0.0 mm
05:20 27.2 °C 12.4 °C 1015.8 hPa SSE 1.6 km/h 3.2 km/h 40 % 0.0 mm
05:30 27.8 °C 12.6 °C 1015.8 hPa SE 1.6 km/h 4.8 km/h 39 % 0.0 mm
05:40 27.5 °C 11.5 °C 1015.8 hPa WSW 3.2 km/h 4.8 km/h 37 % 0.0 mm
05:50 28.7 °C 10.4 °C 1015.8 hPa WSW 1.6 km/h 4.8 km/h 32 % 0.0 mm
06:00 29.2 °C 10.3 °C 1015.8 hPa SE 1.6 km/h 4.8 km/h 31 % 0.0 mm
06:10 30.1 °C 10.1 °C 1015.8 hPa SE 1.6 km/h 4.8 km/h 29 % 0.0 mm
06:20 30.0 °C 9.5 °C 1015.8 hPa SSE 3.2 km/h 4.8 km/h 28 % 0.0 mm
06:30 30.9 °C 10.3 °C 1015.8 hPa SSE 1.6 km/h 4.8 km/h 28 % 0.0 mm
06:40 31.4 °C 11.2 °C 1015.8 hPa WSW 1.6 km/h 4.8 km/h 29 % 0.0 mm
06:50 31.3 °C 10.1 °C 1014.8 hPa SE 4.8 km/h 4.8 km/h 27 % 0.0 mm
07:00 31.1 °C 9.3 °C 1014.8 hPa ESE 4.8 km/h 9.7 km/h 26 % 0.0 mm
07:10 31.6 °C 10.3 °C 1014.8 hPa ENE 3.2 km/h 4.8 km/h 27 % 0.0 mm
07:20 31.8 °C 9.9 °C 1015.8 hPa East 4.8 km/h 8.0 km/h 26 % 0.0 mm
07:30 33.2 °C 11.7 °C 1015.8 hPa SSE 3.2 km/h 6.4 km/h 27 % 0.0 mm
07:40 33.8 °C 10.4 °C 1015.8 hPa South 3.2 km/h 6.4 km/h 24 % 0.0 mm
07:50 33.5 °C 11.4 °C 1015.8 hPa SSW 1.6 km/h 8.0 km/h 26 % 0.0 mm
08:00 33.7 °C 9.7 °C 1015.8 hPa SW 3.2 km/h 4.8 km/h 23 % 0.0 mm
08:10 33.7 °C 10.3 °C 1015.8 hPa SE 4.8 km/h 4.8 km/h 24 % 0.0 mm
08:20 33.4 °C 8.8 °C 1015.8 hPa SSE 8.0 km/h 8.0 km/h 22 % 0.0 mm
08:30 32.7 °C 8.8 °C 1015.8 hPa East 9.7 km/h 9.7 km/h 23 % 0.0 mm
08:40 33.5 °C 9.5 °C 1015.8 hPa East 4.8 km/h 9.7 km/h 23 % 0.0 mm
08:50 32.8 °C 8.9 °C 1014.8 hPa East 8.0 km/h 9.7 km/h 23 % 0.0 mm
09:00 32.9 °C 9.0 °C 1014.8 hPa East 11.3 km/h 14.5 km/h 23 % 0.0 mm
09:10 32.6 °C 8.8 °C 1014.8 hPa East 12.9 km/h 12.9 km/h 23 % 0.0 mm
09:20 32.6 °C 8.8 °C 1014.8 hPa East 11.3 km/h 11.3 km/h 23 % 0.0 mm
09:30 32.7 °C 8.8 °C 1014.8 hPa East 8.0 km/h 11.3 km/h 23 % 0.0 mm
09:40 32.8 °C 8.9 °C 1014.8 hPa East 9.7 km/h 11.3 km/h 23 % 0.0 mm
09:50 32.9 °C 9.0 °C 1014.8 hPa ENE 9.7 km/h 19.3 km/h 23 % 0.0 mm
10:00 32.5 °C 8.1 °C 1014.8 hPa East 4.8 km/h 12.9 km/h 22 % 0.0 mm
10:10 32.7 °C 8.2 °C 1014.8 hPa ESE 11.3 km/h 11.3 km/h 22 % 0.0 mm
10:20 33.7 °C 8.3 °C 1014.8 hPa SE 3.2 km/h 16.1 km/h 21 % 0.0 mm
10:30 34.9 °C 9.3 °C 1014.8 hPa SSW 4.8 km/h 11.3 km/h 21 % 0.0 mm
10:40 35.1 °C 7.2 °C 1014.8 hPa SW 9.7 km/h 9.7 km/h 18 % 0.0 mm
10:50 35.1 °C 8.0 °C 1014.8 hPa SSW 9.7 km/h 12.9 km/h 19 % 0.0 mm
11:00 34.7 °C 7.7 °C 1014.8 hPa SSW 9.7 km/h 14.5 km/h 19 % 0.0 mm
11:10 35.1 °C 6.4 °C 1014.8 hPa SW 4.8 km/h 8.0 km/h 17 % 0.0 mm
11:20 35.1 °C 6.4 °C 1014.8 hPa WSW 9.7 km/h 12.9 km/h 17 % 0.0 mm
11:30 34.6 °C 6.8 °C 1014.8 hPa SW 8.0 km/h 16.1 km/h 18 % 0.0 mm
11:40 33.7 °C 6.1 °C 1014.8 hPa SW 8.0 km/h 17.7 km/h 18 % 0.0 mm
11:50 33.7 °C 5.3 °C 1014.8 hPa SW 9.7 km/h 17.7 km/h 17 % 0.0 mm
12:00 33.8 °C 6.2 °C 1014.8 hPa SW 4.8 km/h 9.7 km/h 18 % 0.0 mm
12:10 33.4 °C 4.2 °C 1013.8 hPa SW 9.7 km/h 20.9 km/h 16 % 0.0 mm
12:20 33.3 °C 4.1 °C 1014.8 hPa SW 8.0 km/h 17.7 km/h 16 % 0.0 mm
12:30 33.2 °C 4.8 °C 1014.8 hPa SW 11.3 km/h 12.9 km/h 17 % 0.0 mm
12:40 33.0 °C 4.7 °C 1013.8 hPa SW 9.7 km/h 9.7 km/h 17 % 0.0 mm
12:50 33.2 °C 4.8 °C 1013.8 hPa SW 4.8 km/h 9.7 km/h 17 % 0.0 mm
13:00 32.6 °C 4.4 °C 1013.8 hPa SW 8.0 km/h 17.7 km/h 17 % 0.0 mm
13:10 32.4 °C 3.3 °C 1013.8 hPa SW 9.7 km/h 19.3 km/h 16 % 0.0 mm
13:20 32.0 °C 3.1 °C 1013.8 hPa SW 8.0 km/h 12.9 km/h 16 % 0.0 mm
13:30 31.7 °C 3.7 °C 1013.8 hPa SW 12.9 km/h 16.1 km/h 17 % 0.0 mm
13:40 31.7 °C 3.7 °C 1013.8 hPa SW 4.8 km/h 12.9 km/h 17 % 0.0 mm
13:50 31.0 °C 3.9 °C 1013.8 hPa SW 9.7 km/h 17.7 km/h 18 % 0.0 mm
14:00 31.0 °C 3.9 °C 1013.8 hPa SSW 4.8 km/h 14.5 km/h 18 % 0.0 mm
14:10 30.6 °C 3.6 °C 1013.8 hPa SW 9.7 km/h 9.7 km/h 18 % 0.0 mm
14:20 30.5 °C 4.3 °C 1014.8 hPa SW 8.0 km/h 9.7 km/h 19 % 0.0 mm
14:30 30.2 °C 4.0 °C 1014.8 hPa SW 8.0 km/h 9.7 km/h 19 % 0.0 mm
14:50 29.8 °C 4.4 °C 1014.8 hPa SW 3.2 km/h 11.3 km/h 20 % 0.0 mm
19:51 29.6 °C 4.3 °C 1014.8 hPa SW 3.7 km/h 6.9 km/h 20 % 0.0 mm
19:56 29.3 °C 3.3 °C 1014.8 hPa SW 9.3 km/h 9.3 km/h 19 % 0.0 mm
20:01 29.0 °C 3.1 °C 1014.8 hPa SW 11.1 km/h 11.1 km/h 19 % 0.0 mm
20:06 28.9 °C 3.7 °C 1014.8 hPa SSE 11.1 km/h 11.1 km/h 20 % 0.0 mm
20:11 28.9 °C 4.4 °C 1014.8 hPa WSW 7.9 km/h 7.9 km/h 21 % 0.0 mm
20:16 28.7 °C 4.2 °C 1014.8 hPa SSW 7.4 km/h 7.4 km/h 21 % 0.0 mm
20:21 28.5 °C 4.1 °C 1014.8 hPa SW 7.4 km/h 7.4 km/h 21 % 0.0 mm
20:26 28.3 °C 3.9 °C 1014.8 hPa WSW 5.6 km/h 5.6 km/h 21 % 0.0 mm
20:31 28.1 °C 3.7 °C 1014.8 hPa SW 13.0 km/h 13.0 km/h 21 % 0.0 mm
20:36 27.8 °C 3.4 °C 1014.8 hPa SW 9.3 km/h 9.3 km/h 21 % 0.0 mm
20:41 27.6 °C 3.3 °C 1014.8 hPa WSW 9.3 km/h 9.3 km/h 21 % 0.0 mm
20:46 27.4 °C 3.1 °C 1014.8 hPa SW 7.4 km/h 7.4 km/h 21 % 0.0 mm
20:51 27.2 °C 2.9 °C 1014.8 hPa SW 7.4 km/h 7.4 km/h 21 % 0.0 mm
20:56 27.1 °C 3.6 °C 1014.8 hPa SW 7.4 km/h 7.4 km/h 22 % 0.0 mm
21:01 26.8 °C 3.3 °C 1014.8 hPa SW 5.6 km/h 5.6 km/h 22 % 0.0 mm
21:06 26.6 °C 3.1 °C 1014.8 hPa SW 7.4 km/h 7.4 km/h 22 % 0.0 mm
21:11 26.4 °C 3.6 °C 1014.8 hPa SW 5.6 km/h 5.6 km/h 23 % 0.0 mm
21:16 26.2 °C 3.4 °C 1014.8 hPa SW 4.7 km/h 4.7 km/h 23 % 0.0 mm
21:21 26.1 °C 3.3 °C 1014.8 hPa West 3.7 km/h 3.7 km/h 23 % 0.0 mm
21:26 26.0 °C 3.8 °C 1014.8 hPa West 1.9 km/h   24 % 0.0 mm
21:31 25.8 °C 3.7 °C 1014.8 hPa West 1.9 km/h   24 % 0.0 mm
21:36 25.7 °C 3.6 °C 1014.8 hPa NW 3.7 km/h 3.7 km/h 24 % 0.0 mm
21:41 25.6 °C 4.1 °C 1014.8 hPa Calm     25 % 0.0 mm
21:46 25.5 °C 4.0 °C 1014.8 hPa NNE 2.6 km/h 2.6 km/h 25 % 0.0 mm
21:51 25.4 °C 3.9 °C 1014.8 hPa NNE 2.6 km/h   25 % 0.0 mm
21:56 25.4 °C 3.9 °C 1014.8 hPa Calm     25 % 0.0 mm
22:01 25.3 °C 3.8 °C 1014.8 hPa Calm     25 % 0.0 mm
22:06 25.3 °C 3.8 °C 1014.8 hPa Calm     25 % 0.0 mm
22:11 25.1 °C 3.7 °C 1014.8 hPa WSW 2.6 km/h 3.2 km/h 25 % 0.0 mm
22:16 25.1 °C 3.7 °C 1014.8 hPa WNW 1.9 km/h   25 % 0.0 mm
22:21 25.0 °C 3.6 °C 1014.8 hPa WSW 3.7 km/h 3.7 km/h 25 % 0.0 mm
22:26 25.0 °C 3.6 °C 1014.8 hPa SW 2.6 km/h 2.6 km/h 25 % 0.0 mm
22:31 24.9 °C 4.1 °C 1015.8 hPa West 1.9 km/h 1.9 km/h 26 % 0.0 mm
22:36 24.8 °C 4.0 °C 1015.8 hPa Calm     26 % 0.0 mm
22:41 24.7 °C 3.9 °C 1015.8 hPa Calm     26 % 0.0 mm
22:46 24.6 °C 3.8 °C 1015.8 hPa Calm     26 % 0.0 mm
22:50 19.5 °C 6.2 °C 1015.8 hPa SW 1.6 km/h 3.2 km/h 42 % 0.0 mm
22:51 24.4 °C 3.7 °C 1015.8 hPa Calm     26 % 0.0 mm
22:56 24.3 °C 3.6 °C 1015.8 hPa Calm     26 % 0.0 mm
23:00 19.5 °C 6.6 °C 1015.8 hPa Calm   1.6 km/h 43 % 0.0 mm
23:01 24.2 °C 4.0 °C 1015.8 hPa Calm     27 % 0.0 mm
23:06 24.1 °C 3.9 °C 1015.8 hPa Calm     27 % 0.0 mm
23:10 19.4 °C 6.5 °C 1015.8 hPa SW 1.6 km/h 3.2 km/h 43 % 0.0 mm
23:11 24.0 °C 3.8 °C 1015.8 hPa West 1.4 km/h   27 % 0.0 mm
23:16 24.0 °C 4.3 °C 1015.8 hPa Calm     28 % 0.0 mm
23:20 19.5 °C 6.6 °C 1015.8 hPa SW 3.2 km/h 3.2 km/h 43 % 0.0 mm
23:21 23.9 °C 4.3 °C 1015.8 hPa SW 1.9 km/h 1.9 km/h 28 % 0.0 mm
23:26 23.8 °C 4.7 °C 1015.8 hPa Calm     29 % 0.0 mm
23:30 19.6 °C 7.0 °C 1015.8 hPa Calm   3.2 km/h 44 % 0.0 mm
23:31 23.6 °C 4.5 °C 1015.8 hPa SW 1.9 km/h 1.9 km/h 29 % 0.0 mm
23:36 23.5 °C 4.4 °C 1015.8 hPa Calm     29 % 0.0 mm
23:40 19.5 °C 7.2 °C 1015.8 hPa Calm   3.2 km/h 45 % 0.0 mm
23:41 23.4 °C 4.8 °C 1015.8 hPa Calm     30 % 0.0 mm
23:47 23.3 °C 5.2 °C 1015.8 hPa Calm     31 % 0.0 mm
23:50 19.2 °C 6.7 °C 1015.8 hPa WSW 1.6 km/h 3.2 km/h 44 % 0.0 mm
23:52 23.2 °C 5.6 °C 1015.8 hPa SW 1.4 km/h   32 % 0.0 mm
23:57 23.0 °C 5.8 °C 1015.8 hPa Calm     33 % 0.0 mm
Meteo Sesrovires
Elogis d' Weather Underground - 3.25 mb

Guio original per  Jim McMurry - jmcmurry@mwt.net Adaptat per a la plantilla per  Wim van der Kuil - Leuven-Template.eu

Trobareu la nostra informacio del temps tambe a:

Weather Underground

AWEKAS